Time;durP1;ratioP1;P1;durP2;ratioP2;P2;SDS_P1;SDS_P2;PMS_P1;PMS_P2;Temp;Humidity;BMP_temperature;BMP_pressure;BME280_temperature;BME280_humidity;BME280_pressure;Samples;Min_cycle;Max_cycle;Signal;HPM_P1;HPM_P2
2022/12/09 00:03:50;;;;;;;29.40;12.10;;;;;;;;;;10324764;28;20404;-74
2022/12/09 00:08:51;;;;;;;32.00;11.45;;;;;;;;;;10324947;28;20521;-80
2022/12/09 00:13:53;;;;;;;25.40;11.95;;;;;;;;;;10325053;28;20117;-73
2022/12/09 00:18:53;;;;;;;26.52;12.65;;;;;;;;;;10402143;28;20054;-79
2022/12/09 00:23:54;;;;;;;25.42;10.82;;;;;;;;;;10389419;28;20400;-79
2022/12/09 00:28:56;;;;;;;25.15;12.32;;;;;;;;;;10388758;28;20601;-79
2022/12/09 00:33:57;;;;;;;24.23;12.20;;;;;;;;;;10382861;28;20113;-74
2022/12/09 00:38:58;;;;;;;22.30;9.57;;;;;;;;;;10388721;28;20064;-75
2022/12/09 00:43:58;;;;;;;24.77;9.23;;;;;;;;;;10406148;28;20113;-75
2022/12/09 00:48:58;;;;;;;23.20;10.35;;;;;;;;;;10387580;28;20037;-80
2022/12/09 00:53:58;;;;;;;26.17;10.00;;;;;;;;;;10386246;28;20124;-74
2022/12/09 00:58:59;;;;;;;20.20;7.47;;;;;;;;;;10363680;28;20022;-72
2022/12/09 01:04:00;;;;;;;24.40;11.53;;;;;;;;;;10340757;28;20474;-74
2022/12/09 01:09:02;;;;;;;20.77;11.82;;;;;;;;;;10386731;28;20128;-74
2022/12/09 01:14:02;;;;;;;20.40;9.27;;;;;;;;;;10387272;28;20479;-74
2022/12/09 01:19:05;;;;;;;20.88;8.98;;;;;;;;;;10387237;28;20049;-79
2022/12/09 01:24:09;;;;;;;18.25;8.57;;;;;;;;;;10386702;28;20024;-74
2022/12/09 01:29:09;;;;;;;31.52;8.65;;;;;;;;;;10386774;28;20055;-79
2022/12/09 01:34:10;;;;;;;17.63;8.07;;;;;;;;;;10372910;28;20030;-73
2022/12/09 01:39:10;;;;;;;16.17;7.70;;;;;;;;;;10375479;28;20121;-73
2022/12/09 01:44:16;;;;;;;23.08;7.50;;;;;;;;;;10391449;28;20013;-75
2022/12/09 01:49:22;;;;;;;18.17;7.60;;;;;;;;;;10386466;28;20442;-78
2022/12/09 01:54:23;;;;;;;18.85;7.30;;;;;;;;;;10386309;28;20018;-75
2022/12/09 01:59:23;;;;;;;24.88;8.57;;;;;;;;;;10368562;28;20029;-74
2022/12/09 02:04:24;;;;;;;26.92;10.43;;;;;;;;;;10385079;28;20464;-77
2022/12/09 02:09:25;;;;;;;22.23;9.63;;;;;;;;;;10368774;28;20053;-79
2022/12/09 02:14:54;;;;;;;26.63;10.93;;;;;;;;;;10389908;28;20178;-74
2022/12/09 02:20:02;;;;;;;26.50;10.23;;;;;;;;;;10331702;28;20042;-74
2022/12/09 02:25:11;;;;;;;25.00;11.23;;;;;;;;;;10384441;28;20545;-74
2022/12/09 02:30:22;;;;;;;28.00;11.48;;;;;;;;;;10401840;28;20272;-74
2022/12/09 02:35:25;;;;;;;21.52;10.13;;;;;;;;;;10402217;28;20077;-76
2022/12/09 02:40:29;;;;;;;29.70;11.13;;;;;;;;;;10357798;28;20116;-78
2022/12/09 02:45:30;;;;;;;22.80;11.00;;;;;;;;;;10384392;28;20151;-79
2022/12/09 02:50:33;;;;;;;18.25;9.73;;;;;;;;;;10383488;28;20100;-74
2022/12/09 02:55:34;;;;;;;20.92;9.52;;;;;;;;;;10368269;28;20017;-75
2022/12/09 03:00:35;;;;;;;23.27;10.20;;;;;;;;;;10374748;28;20040;-77
2022/12/09 03:05:40;;;;;;;24.83;10.65;;;;;;;;;;10383187;28;20029;-80
2022/12/09 03:11:01;;;;;;;22.05;11.35;;;;;;;;;;10389170;28;20037;-77
2022/12/09 03:16:06;;;;;;;21.90;10.60;;;;;;;;;;10402802;28;20061;-74
2022/12/09 03:21:06;;;;;;;20.40;10.23;;;;;;;;;;10390783;28;20117;-74
2022/12/09 03:26:06;;;;;;;27.90;11.65;;;;;;;;;;10391039;28;20029;-74
2022/12/09 03:31:09;;;;;;;24.70;11.93;;;;;;;;;;10374297;28;20025;-75
2022/12/09 03:36:12;;;;;;;24.95;10.82;;;;;;;;;;10390992;28;20029;-74
2022/12/09 03:41:32;;;;;;;20.38;11.55;;;;;;;;;;10390161;28;20466;-74
2022/12/09 03:46:32;;;;;;;42.00;15.05;;;;;;;;;;10389846;28;20025;-74
2022/12/09 03:51:43;;;;;;;37.05;15.32;;;;;;;;;;10420272;28;20488;-77
2022/12/09 03:56:44;;;;;;;39.60;16.42;;;;;;;;;;10405909;28;20023;-73
2022/12/09 04:01:45;;;;;;;43.70;19.73;;;;;;;;;;10421468;28;20499;-74
2022/12/09 04:06:46;;;;;;;40.97;17.95;;;;;;;;;;10389628;28;20140;-78
2022/12/09 04:11:48;;;;;;;44.75;19.80;;;;;;;;;;10377623;28;20025;-74
2022/12/09 04:16:48;;;;;;;38.17;18.08;;;;;;;;;;10389123;28;20069;-78
2022/12/09 04:21:48;;;;;;;36.30;14.87;;;;;;;;;;10405383;28;20124;-73
2022/12/09 04:26:48;;;;;;;32.27;13.47;;;;;;;;;;10388134;28;20029;-74
2022/12/09 04:31:49;;;;;;;26.98;11.25;;;;;;;;;;10388682;28;20044;-79
2022/12/09 04:36:49;;;;;;;28.48;13.35;;;;;;;;;;10388629;28;20099;-75
2022/12/09 04:41:49;;;;;;;33.60;12.40;;;;;;;;;;10387751;28;20491;-75
2022/12/09 04:46:49;;;;;;;42.40;15.43;;;;;;;;;;10407785;28;20056;-74
2022/12/09 04:51:50;;;;;;;42.60;20.08;;;;;;;;;;10374181;28;20036;-75
2022/12/09 04:56:50;;;;;;;43.78;17.73;;;;;;;;;;10386614;28;20033;-80
2022/12/09 05:01:50;;;;;;;32.17;16.27;;;;;;;;;;10380868;28;20036;-75
2022/12/09 05:06:51;;;;;;;34.60;17.67;;;;;;;;;;10376602;28;20676;-74
2022/12/09 05:11:52;;;;;;;42.10;18.13;;;;;;;;;;10400942;28;20116;-78
2022/12/09 05:16:53;;;;;;;40.30;18.17;;;;;;;;;;10375710;28;20131;-73
2022/12/09 05:21:53;;;;;;;35.67;21.83;;;;;;;;;;10353451;28;20578;-74
2022/12/09 05:26:53;;;;;;;38.05;18.52;;;;;;;;;;10396352;28;20195;-74
2022/12/09 05:31:53;;;;;;;45.53;16.85;;;;;;;;;;10377149;28;20030;-73
2022/12/09 05:36:54;;;;;;;46.35;20.65;;;;;;;;;;10399590;28;20037;-73
2022/12/09 05:41:54;;;;;;;39.53;19.70;;;;;;;;;;10386479;28;20037;-73
2022/12/09 05:46:56;;;;;;;49.13;22.37;;;;;;;;;;10377749;28;20021;-74
2022/12/09 05:51:56;;;;;;;54.22;22.40;;;;;;;;;;10400724;28;20100;-73
2022/12/09 05:56:58;;;;;;;56.87;22.27;;;;;;;;;;10383288;28;20094;-75
2022/12/09 06:01:58;;;;;;;51.97;21.80;;;;;;;;;;10400014;28;20091;-74
2022/12/09 06:06:58;;;;;;;48.40;19.83;;;;;;;;;;10384854;28;20056;-75
2022/12/09 06:11:58;;;;;;;47.22;21.45;;;;;;;;;;10388868;28;20041;-74
2022/12/09 06:16:59;;;;;;;52.25;20.27;;;;;;;;;;10411721;28;20088;-75
2022/12/09 06:21:59;;;;;;;44.50;18.35;;;;;;;;;;10384108;28;20025;-78
2022/12/09 06:26:59;;;;;;;40.77;17.70;;;;;;;;;;10368462;28;20033;-78
2022/12/09 06:32:00;;;;;;;42.25;16.77;;;;;;;;;;10382059;28;21245;-77
2022/12/09 06:37:00;;;;;;;39.77;19.17;;;;;;;;;;10366337;28;20085;-74
2022/12/09 06:42:00;;;;;;;48.20;20.52;;;;;;;;;;10400568;28;20124;-76
2022/12/09 06:47:01;;;;;;;47.10;23.85;;;;;;;;;;10382724;28;20052;-77
2022/12/09 06:52:01;;;;;;;65.80;24.37;;;;;;;;;;10371005;28;20033;-75
2022/12/09 06:57:01;;;;;;;48.10;21.77;;;;;;;;;;10363116;28;20806;-77
2022/12/09 07:02:01;;;;;;;51.38;23.25;;;;;;;;;;10382831;28;20061;-74
2022/12/09 07:07:02;;;;;;;43.87;19.47;;;;;;;;;;10381208;28;20072;-76
2022/12/09 07:12:02;;;;;;;36.55;16.60;;;;;;;;;;10382505;28;20079;-77
2022/12/09 07:17:03;;;;;;;33.97;15.17;;;;;;;;;;10384430;28;20050;-75
2022/12/09 07:22:04;;;;;;;43.90;16.00;;;;;;;;;;10369542;28;20030;-76
2022/12/09 07:27:06;;;;;;;42.58;16.50;;;;;;;;;;10399624;28;20029;-74
2022/12/09 07:32:08;;;;;;;41.58;15.52;;;;;;;;;;10381305;28;20492;-75
2022/12/09 07:37:08;;;;;;;45.67;16.98;;;;;;;;;;10369183;28;20132;-75
2022/12/09 07:42:09;;;;;;;37.90;15.77;;;;;;;;;;10372323;28;20037;-75
2022/12/09 07:47:09;;;;;;;53.28;18.23;;;;;;;;;;10368608;28;20064;-74
2022/12/09 07:52:11;;;;;;;40.30;15.43;;;;;;;;;;10360260;28;20033;-74
2022/12/09 07:57:11;;;;;;;41.70;15.00;;;;;;;;;;10370187;28;20034;-74
2022/12/09 08:02:11;;;;;;;41.65;14.48;;;;;;;;;;10376724;28;20030;-79
2022/12/09 08:07:12;;;;;;;37.15;14.05;;;;;;;;;;10379901;28;20593;-74
2022/12/09 08:12:12;;;;;;;41.20;15.25;;;;;;;;;;10375219;28;20475;-73
2022/12/09 08:17:12;;;;;;;27.98;12.73;;;;;;;;;;10328132;28;20062;-74
2022/12/09 08:22:12;;;;;;;32.85;14.90;;;;;;;;;;10312128;28;20056;-77
2022/12/09 08:27:13;;;;;;;56.10;16.23;;;;;;;;;;10297427;28;20026;-80
2022/12/09 08:32:15;;;;;;;56.17;16.55;;;;;;;;;;10307074;28;20117;-75
2022/12/09 08:37:15;;;;;;;36.90;15.00;;;;;;;;;;10329141;28;20049;-75
2022/12/09 08:42:16;;;;;;;36.25;13.82;;;;;;;;;;10316908;28;20047;-74
2022/12/09 08:47:16;;;;;;;37.25;12.15;;;;;;;;;;10317005;28;20412;-75
2022/12/09 08:52:16;;;;;;;25.42;9.70;;;;;;;;;;10317026;28;20482;-73
2022/12/09 08:57:20;;;;;;;29.27;10.02;;;;;;;;;;10314254;28;20467;-75
2022/12/09 09:02:20;;;;;;;32.20;8.80;;;;;;;;;;10314447;28;20037;-74
2022/12/09 09:07:20;;;;;;;32.90;9.68;;;;;;;;;;10313383;28;20031;-75
2022/12/09 09:12:21;;;;;;;33.30;9.00;;;;;;;;;;10303674;28;20596;-78
2022/12/09 09:17:21;;;;;;;31.50;9.50;;;;;;;;;;10306038;28;20055;-75
2022/12/09 09:22:22;;;;;;;33.22;9.20;;;;;;;;;;10312990;28;20027;-75
2022/12/09 09:27:22;;;;;;;34.55;10.40;;;;;;;;;;10305706;28;20441;-74
2022/12/09 09:32:22;;;;;;;27.33;10.88;;;;;;;;;;10299451;28;20030;-80
2022/12/09 09:37:22;;;;;;;32.53;12.20;;;;;;;;;;10304914;28;20030;-76
2022/12/09 09:42:25;;;;;;;32.47;11.05;;;;;;;;;;10309174;28;20042;-81
2022/12/09 09:47:33;;;;;;;37.75;11.00;;;;;;;;;;10305619;28;20054;-80
2022/12/09 09:52:36;;;;;;;36.72;11.27;;;;;;;;;;10301923;28;20038;-78
2022/12/09 09:57:45;;;;;;;37.92;11.13;;;;;;;;;;10315028;28;20419;-79
2022/12/09 10:03:04;;;;;;;30.40;10.88;;;;;;;;;;10294304;28;20527;-75
2022/12/09 10:08:23;;;;;;;38.15;12.50;;;;;;;;;;10316510;28;20050;-73
2022/12/09 10:13:44;;;;;;;60.65;22.63;;;;;;;;;;10293718;28;20118;-80
2022/12/09 10:19:18;;;;;;;57.70;22.63;;;;;;;;;;10270047;28;20172;-80
2022/12/09 10:24:20;;;;;;;59.92;21.60;;;;;;;;;;10276121;28;20057;-74
2022/12/09 10:29:44;;;;;;;64.90;25.48;;;;;;;;;;10317376;28;20572;-78
2022/12/09 10:34:45;;;;;;;55.53;23.25;;;;;;;;;;10305808;28;20037;-75
2022/12/09 10:39:46;;;;;;;66.47;27.20;;;;;;;;;;10318563;28;20452;-75
2022/12/09 10:44:47;;;;;;;72.13;29.98;;;;;;;;;;10319863;28;20018;-74
2022/12/09 10:49:49;;;;;;;84.65;33.67;;;;;;;;;;10320106;28;20465;-75
2022/12/09 10:54:49;;;;;;;75.78;31.85;;;;;;;;;;10318881;28;20185;-74
2022/12/09 10:59:57;;;;;;;78.20;30.03;;;;;;;;;;10319427;28;20554;-75
2022/12/09 11:05:21;;;;;;;69.15;30.88;;;;;;;;;;10293598;28;20034;-78
2022/12/09 11:10:23;;;;;;;73.40;34.35;;;;;;;;;;10292204;28;20559;-79
2022/12/09 11:15:25;;;;;;;74.13;32.17;;;;;;;;;;10340386;28;20548;-78
2022/12/09 11:20:28;;;;;;;91.00;30.98;;;;;;;;;;10398296;28;20026;-75
2022/12/09 11:25:30;;;;;;;63.45;29.65;;;;;;;;;;10368193;28;20029;-71
2022/12/09 11:30:37;;;;;;;70.22;25.63;;;;;;;;;;10421232;28;20204;-75
2022/12/09 11:35:44;;;;;;;53.20;23.95;;;;;;;;;;10429275;22;20139;-79
2022/12/09 11:40:56;;;;;;;59.92;22.73;;;;;;;;;;10428137;28;20083;-74
2022/12/09 11:45:57;;;;;;;64.35;21.25;;;;;;;;;;10439100;28;20029;-74
2022/12/09 11:51:00;;;;;;;51.30;20.10;;;;;;;;;;10411661;28;20029;-76
2022/12/09 11:56:15;;;;;;;50.15;18.17;;;;;;;;;;10416365;28;20033;-76
2022/12/09 12:01:22;;;;;;;59.22;18.85;;;;;;;;;;10419680;28;20040;-79
2022/12/09 12:06:24;;;;;;;49.97;20.63;;;;;;;;;;10439610;28;20413;-77
2022/12/09 12:11:27;;;;;;;39.78;16.92;;;;;;;;;;10417622;28;20473;-77
2022/12/09 12:16:33;;;;;;;46.33;19.52;;;;;;;;;;10420038;28;20025;-75
2022/12/09 12:21:54;;;;;;;65.40;19.02;;;;;;;;;;10420751;28;20471;-75
2022/12/09 12:27:13;;;;;;;55.45;17.17;;;;;;;;;;10406421;28;20024;-74
2022/12/09 12:32:17;;;;;;;60.63;19.40;;;;;;;;;;10438761;28;20522;-76
2022/12/09 12:37:30;;;;;;;53.47;20.00;;;;;;;;;;10426890;28;20592;-74
2022/12/09 12:42:33;;;;;;;72.95;20.15;;;;;;;;;;10425888;28;20447;-77
2022/12/09 12:47:36;;;;;;;42.33;17.58;;;;;;;;;;10428208;28;20390;-73
2022/12/09 12:52:41;;;;;;;52.70;17.00;;;;;;;;;;10446230;28;20039;-76
2022/12/09 12:57:46;;;;;;;44.63;15.10;;;;;;;;;;10426413;28;20566;-74
2022/12/09 13:02:58;;;;;;;44.92;16.90;;;;;;;;;;10445461;28;20029;-75
2022/12/09 13:08:02;;;;;;;46.28;14.18;;;;;;;;;;10427564;28;20448;-73
2022/12/09 13:13:03;;;;;;;47.10;12.65;;;;;;;;;;10426365;28;20467;-74
2022/12/09 13:18:06;;;;;;;51.03;14.57;;;;;;;;;;10426085;28;20108;-77
2022/12/09 13:23:15;;;;;;;50.65;20.52;;;;;;;;;;10446428;28;20118;-77
2022/12/09 13:28:19;;;;;;;48.50;16.73;;;;;;;;;;10426840;28;20021;-75
2022/12/09 13:33:28;;;;;;;45.92;16.05;;;;;;;;;;10413526;28;20041;-74
2022/12/09 13:38:39;;;;;;;63.30;16.52;;;;;;;;;;10427219;28;20045;-74
2022/12/09 13:43:39;;;;;;;61.72;18.15;;;;;;;;;;10426170;28;20010;-76
2022/12/09 13:48:42;;;;;;;49.30;18.53;;;;;;;;;;10427503;28;20090;-79
2022/12/09 13:53:59;;;;;;;52.85;18.65;;;;;;;;;;10426285;28;20863;-74
2022/12/09 13:59:12;;;;;;;47.72;18.50;;;;;;;;;;10438179;28;20039;-74
2022/12/09 14:04:12;;;;;;;56.47;18.50;;;;;;;;;;10467235;28;20507;-73
2022/12/09 14:09:30;;;;;;;49.20;16.27;;;;;;;;;;10431067;28;20630;-74
2022/12/09 14:14:31;;;;;;;51.30;17.05;;;;;;;;;;10424006;28;20077;-77
2022/12/09 14:19:50;;;;;;;55.55;15.80;;;;;;;;;;10447180;28;20139;-78
2022/12/09 14:24:51;;;;;;;57.05;16.60;;;;;;;;;;10424804;28;20017;-74
2022/12/09 14:29:51;;;;;;;62.65;17.80;;;;;;;;;;10421997;28;20121;-74
2022/12/09 14:35:05;;;;;;;53.83;18.17;;;;;;;;;;10441571;28;20468;-76
2022/12/09 14:40:14;;;;;;;43.55;14.93;;;;;;;;;;10423905;28;20028;-73
2022/12/09 14:45:28;;;;;;;62.72;17.17;;;;;;;;;;10438377;28;20053;-76
2022/12/09 14:50:28;;;;;;;51.00;15.55;;;;;;;;;;10436526;28;20021;-72
2022/12/09 14:55:32;;;;;;;53.30;15.37;;;;;;;;;;10422580;28;20556;-78
2022/12/09 15:00:36;;;;;;;53.03;15.48;;;;;;;;;;10423342;28;20033;-76
2022/12/09 15:05:37;;;;;;;44.88;14.15;;;;;;;;;;10436664;28;20040;-77
2022/12/09 15:10:37;;;;;;;36.17;15.25;;;;;;;;;;10423018;28;20104;-75
2022/12/09 15:15:38;;;;;;;53.30;15.07;;;;;;;;;;10406884;28;20029;-76
2022/12/09 15:20:39;;;;;;;40.15;13.63;;;;;;;;;;10423722;28;20025;-77
2022/12/09 15:25:50;;;;;;;56.22;19.02;;;;;;;;;;10421179;28;20021;-74
2022/12/09 15:30:58;;;;;;;50.38;17.02;;;;;;;;;;10432584;28;20052;-78
2022/12/09 15:35:59;;;;;;;67.45;14.35;;;;;;;;;;10427007;28;20053;-75
2022/12/09 15:46:20;;;;;;;53.53;14.75;;;;;;;;;;10441028;28;20021;-76
2022/12/09 15:51:21;;;;;;;40.72;14.25;;;;;;;;;;10422409;28;20449;-79
2022/12/09 15:56:25;;;;;;;46.95;14.32;;;;;;;;;;10416441;28;20021;-75
2022/12/09 16:01:29;;;;;;;53.00;16.27;;;;;;;;;;10402100;28;20411;-74
2022/12/09 16:06:35;;;;;;;50.15;15.35;;;;;;;;;;10413960;28;20087;-79
2022/12/09 16:11:47;;;;;;;39.10;14.77;;;;;;;;;;10417384;28;20440;-82
2022/12/09 16:16:54;;;;;;;41.20;13.75;;;;;;;;;;10395413;28;20439;-74
2022/12/09 16:21:59;;;;;;;76.30;15.53;;;;;;;;;;10409629;28;20020;-74
2022/12/09 16:27:03;;;;;;;47.72;14.07;;;;;;;;;;10405073;28;20110;-75
2022/12/09 16:32:23;;;;;;;45.55;15.45;;;;;;;;;;10408935;28;20335;-72
2022/12/09 16:37:23;;;;;;;50.78;15.38;;;;;;;;;;10416951;28;20050;-72
2022/12/09 16:42:28;;;;;;;51.37;16.80;;;;;;;;;;10429087;28;20067;-74
2022/12/09 16:47:31;;;;;;;55.38;16.20;;;;;;;;;;10426846;28;20052;-74
2022/12/09 16:52:31;;;;;;;37.42;13.80;;;;;;;;;;10439747;28;20769;-77
2022/12/09 16:57:31;;;;;;;38.83;13.73;;;;;;;;;;10410069;28;20024;-77
2022/12/09 17:02:34;;;;;;;45.80;13.15;;;;;;;;;;10402025;28;20459;-73
2022/12/09 17:07:34;;;;;;;44.13;15.45;;;;;;;;;;10394806;28;20558;-75
2022/12/09 17:12:34;;;;;;;50.60;14.90;;;;;;;;;;10393420;28;20028;-78
2022/12/09 17:17:35;;;;;;;57.92;15.70;;;;;;;;;;10404048;28;20279;-77
2022/12/09 17:22:35;;;;;;;40.60;14.63;;;;;;;;;;10404488;28;20105;-74
2022/12/09 17:27:36;;;;;;;47.50;14.18;;;;;;;;;;10420054;28;20568;-76
2022/12/09 17:32:36;;;;;;;42.58;14.00;;;;;;;;;;10409963;28;20029;-77
2022/12/09 17:37:36;;;;;;;40.63;12.80;;;;;;;;;;10412610;28;20056;-76
2022/12/09 17:42:37;;;;;;;37.63;13.50;;;;;;;;;;10402650;28;20441;-75
2022/12/09 17:47:37;;;;;;;49.33;13.73;;;;;;;;;;10417681;28;20044;-81
2022/12/09 17:52:38;;;;;;;50.47;16.53;;;;;;;;;;10412087;28;20018;-75
2022/12/09 17:57:40;;;;;;;40.97;15.50;;;;;;;;;;10381787;28;20519;-74
2022/12/09 18:02:42;;;;;;;48.00;15.70;;;;;;;;;;10400105;28;20090;-76
2022/12/09 18:07:43;;;;;;;47.75;15.63;;;;;;;;;;10396134;28;20276;-75
2022/12/09 18:12:46;;;;;;;51.50;17.63;;;;;;;;;;10398717;28;20052;-76
2022/12/09 18:17:47;;;;;;;42.83;15.57;;;;;;;;;;10400922;28;20110;-73
2022/12/09 18:22:47;;;;;;;46.80;13.48;;;;;;;;;;10389104;28;20024;-79
2022/12/09 18:27:47;;;;;;;44.08;13.85;;;;;;;;;;10389578;28;20025;-75
2022/12/09 18:32:47;;;;;;;54.05;14.65;;;;;;;;;;10382861;28;20057;-74
2022/12/09 18:37:48;;;;;;;42.97;14.15;;;;;;;;;;10388009;28;20115;-76
2022/12/09 18:42:48;;;;;;;34.30;12.57;;;;;;;;;;10402464;28;20040;-78
2022/12/09 18:47:49;;;;;;;45.38;13.35;;;;;;;;;;10385367;28;20079;-77
2022/12/09 18:52:49;;;;;;;44.88;14.93;;;;;;;;;;10414213;28;20025;-75
2022/12/09 18:57:49;;;;;;;43.83;13.23;;;;;;;;;;10438848;28;20036;-74
2022/12/09 19:02:49;;;;;;;51.28;17.90;;;;;;;;;;10444801;28;20029;-73
2022/12/09 19:07:50;;;;;;;53.65;15.50;;;;;;;;;;10434348;28;20017;-76
2022/12/09 19:12:53;;;;;;;41.83;12.85;;;;;;;;;;10430014;28;20028;-77
2022/12/09 19:17:54;;;;;;;32.55;13.82;;;;;;;;;;10411199;28;20021;-74
2022/12/09 19:22:56;;;;;;;44.30;13.38;;;;;;;;;;10412940;28;20021;-72
2022/12/09 19:27:56;;;;;;;36.00;14.30;;;;;;;;;;10410359;28;20108;-76
2022/12/09 19:32:56;;;;;;;43.22;13.75;;;;;;;;;;10414433;28;20032;-73
2022/12/09 19:37:56;;;;;;;28.40;11.80;;;;;;;;;;10411734;28;20601;-77
2022/12/09 19:42:57;;;;;;;40.92;13.57;;;;;;;;;;10416927;28;20110;-75
2022/12/09 19:47:57;;;;;;;31.20;12.85;;;;;;;;;;10420451;28;20017;-73
2022/12/09 19:52:58;;;;;;;42.83;12.93;;;;;;;;;;10443057;28;20056;-75
2022/12/09 19:57:58;;;;;;;46.55;14.98;;;;;;;;;;10427718;28;20033;-76
2022/12/09 20:02:58;;;;;;;38.97;14.57;;;;;;;;;;10432643;28;20052;-73
2022/12/09 20:07:59;;;;;;;35.72;12.90;;;;;;;;;;10486062;22;20204;-73
2022/12/09 20:12:59;;;;;;;43.77;14.60;;;;;;;;;;10443879;28;20033;-74
2022/12/09 20:17:59;;;;;;;41.47;13.13;;;;;;;;;;10440178;28;20787;-75
2022/12/09 20:23:00;;;;;;;42.20;13.15;;;;;;;;;;10459959;28;20583;-73
2022/12/09 20:28:00;;;;;;;33.20;10.90;;;;;;;;;;10417842;28;20116;-73
2022/12/09 20:33:01;;;;;;;41.63;9.18;;;;;;;;;;10413597;28;20467;-73
2022/12/09 20:38:01;;;;;;;33.97;10.20;;;;;;;;;;10416109;28;20032;-73
2022/12/09 20:43:02;;;;;;;21.85;8.70;;;;;;;;;;10409906;28;20052;-74
2022/12/09 20:48:02;;;;;;;26.73;8.63;;;;;;;;;;10414538;28;20032;-73
2022/12/09 20:53:03;;;;;;;42.33;11.45;;;;;;;;;;10430325;28;20116;-74
2022/12/09 20:58:03;;;;;;;36.13;10.32;;;;;;;;;;10415499;28;20040;-72
2022/12/09 21:03:03;;;;;;;31.02;9.00;;;;;;;;;;10407415;28;20491;-72
2022/12/09 21:08:04;;;;;;;33.15;11.45;;;;;;;;;;10437275;28;20057;-73
2022/12/09 21:13:04;;;;;;;38.80;10.73;;;;;;;;;;10420752;28;20029;-73
2022/12/09 21:18:04;;;;;;;15.73;7.17;;;;;;;;;;10428616;28;20186;-74
2022/12/09 21:23:04;;;;;;;29.38;9.77;;;;;;;;;;10425538;28;20283;-74
2022/12/09 21:28:05;;;;;;;31.63;9.23;;;;;;;;;;10413255;28;20032;-73
2022/12/09 21:33:05;;;;;;;24.10;11.47;;;;;;;;;;10413610;28;20029;-76
2022/12/09 21:38:06;;;;;;;29.52;11.05;;;;;;;;;;10410241;28;20025;-75
2022/12/09 21:43:06;;;;;;;26.55;10.55;;;;;;;;;;10413205;28;20415;-74
2022/12/09 21:48:07;;;;;;;28.38;12.43;;;;;;;;;;10411522;28;20119;-76
2022/12/09 21:53:07;;;;;;;29.92;11.02;;;;;;;;;;10416220;28;20111;-74
2022/12/09 21:58:07;;;;;;;34.53;12.98;;;;;;;;;;10413788;28;20167;-74
2022/12/09 22:03:08;;;;;;;42.78;14.10;;;;;;;;;;10407116;28;20045;-74
2022/12/09 22:08:08;;;;;;;40.13;12.07;;;;;;;;;;10412137;28;20044;-75
2022/12/09 22:13:08;;;;;;;31.73;10.87;;;;;;;;;;10423346;28;20468;-74
2022/12/09 22:18:08;;;;;;;35.42;10.80;;;;;;;;;;10423367;28;20095;-73
2022/12/09 22:23:11;;;;;;;34.65;11.65;;;;;;;;;;10422836;28;20498;-73
2022/12/09 22:28:11;;;;;;;34.20;10.60;;;;;;;;;;10423118;28;20112;-74
2022/12/09 22:33:11;;;;;;;25.42;10.88;;;;;;;;;;10422243;28;20035;-74
2022/12/09 22:38:12;;;;;;;28.77;10.47;;;;;;;;;;10420228;28;20033;-77
2022/12/09 22:43:12;;;;;;;30.67;11.18;;;;;;;;;;10426204;28;20380;-75
2022/12/09 22:48:12;;;;;;;39.23;11.33;;;;;;;;;;10406882;28;20037;-74
2022/12/09 22:53:12;;;;;;;33.80;9.97;;;;;;;;;;10391765;28;20036;-74
2022/12/09 22:58:13;;;;;;;23.23;9.45;;;;;;;;;;10397642;28;20125;-73
2022/12/09 23:03:14;;;;;;;27.30;10.80;;;;;;;;;;10388463;28;20076;-72
2022/12/09 23:08:14;;;;;;;32.08;11.00;;;;;;;;;;10385670;28;20049;-77
2022/12/09 23:13:14;;;;;;;27.63;11.02;;;;;;;;;;10406192;28;20029;-74
2022/12/09 23:18:14;;;;;;;30.27;11.15;;;;;;;;;;10389881;28;20099;-76
2022/12/09 23:23:15;;;;;;;43.90;10.45;;;;;;;;;;10390742;28;20029;-75
2022/12/09 23:28:15;;;;;;;27.08;9.88;;;;;;;;;;10418972;28;20120;-75
2022/12/09 23:33:16;;;;;;;32.50;10.57;;;;;;;;;;10419971;28;20582;-74
2022/12/09 23:38:16;;;;;;;28.17;8.68;;;;;;;;;;10419952;28;20359;-75
2022/12/09 23:43:17;;;;;;;28.08;10.82;;;;;;;;;;10433967;28;20036;-74
2022/12/09 23:48:17;;;;;;;28.40;9.82;;;;;;;;;;10413486;28;20119;-74
2022/12/09 23:53:17;;;;;;;41.30;10.13;;;;;;;;;;10416744;28;20025;-75
2022/12/09 23:58:17;;;;;;;32.17;9.80;;;;;;;;;;10423289;28;20021;-75
